sensor_id;sensor_type;location;lat;lon;timestamp;pressure;altitude;pressure_sealevel;temperature
71649;BMP180;59492;45.638;11.714;2022-09-09T00:04:31;100698.80;;;28.24
71649;BMP180;59492;45.638;11.714;2022-09-09T00:07:18;100693.80;;;28.22
71649;BMP180;59492;45.638;11.714;2022-09-09T00:15:04;100697.40;;;28.10
71649;BMP180;59492;45.638;11.714;2022-09-09T00:17:58;100705.40;;;28.10
71649;BMP180;59492;45.638;11.714;2022-09-09T00:31:35;100717.00;;;27.90
71649;BMP180;59492;45.638;11.714;2022-09-09T00:34:18;100721.20;;;27.90
71649;BMP180;59492;45.638;11.714;2022-09-09T00:36:46;100723.80;;;27.86
71649;BMP180;59492;45.638;11.714;2022-09-09T00:39:27;100723.60;;;27.88
71649;BMP180;59492;45.638;11.714;2022-09-09T00:44:35;100727.60;;;27.66
71649;BMP180;59492;45.638;11.714;2022-09-09T00:50:00;100726.80;;;27.70
71649;BMP180;59492;45.638;11.714;2022-09-09T00:58:10;100721.60;;;27.62
71649;BMP180;59492;45.638;11.714;2022-09-09T01:00:47;100714.20;;;27.66
71649;BMP180;59492;45.638;11.714;2022-09-09T01:05:49;100719.00;;;27.60
71649;BMP180;59492;45.638;11.714;2022-09-09T01:08:36;100723.40;;;27.60
71649;BMP180;59492;45.638;11.714;2022-09-09T01:11:10;100730.20;;;27.52
71649;BMP180;59492;45.638;11.714;2022-09-09T01:13:41;100728.00;;;27.52
71649;BMP180;59492;45.638;11.714;2022-09-09T01:16:10;100725.60;;;27.50
71649;BMP180;59492;45.638;11.714;2022-09-09T01:18:44;100723.00;;;27.50
71649;BMP180;59492;45.638;11.714;2022-09-09T01:21:17;100721.00;;;27.50
71649;BMP180;59492;45.638;11.714;2022-09-09T01:26:40;100718.80;;;27.40
71649;BMP180;59492;45.638;11.714;2022-09-09T01:29:12;100720.80;;;27.40
71649;BMP180;59492;45.638;11.714;2022-09-09T01:31:41;100719.40;;;27.40
71649;BMP180;59492;45.638;11.714;2022-09-09T01:34:12;100716.60;;;27.40
71649;BMP180;59492;45.638;11.714;2022-09-09T01:36:44;100718.80;;;27.40
71649;BMP180;59492;45.638;11.714;2022-09-09T01:39:11;100716.00;;;27.36
71649;BMP180;59492;45.638;11.714;2022-09-09T01:41:37;100718.00;;;27.36
71649;BMP180;59492;45.638;11.714;2022-09-09T01:44:04;100716.20;;;27.32
71649;BMP180;59492;45.638;11.714;2022-09-09T01:46:30;100714.60;;;27.30
71649;BMP180;59492;45.638;11.714;2022-09-09T01:48:56;100714.20;;;27.30
71649;BMP180;59492;45.638;11.714;2022-09-09T01:51:22;100717.00;;;27.30
71649;BMP180;59492;45.638;11.714;2022-09-09T01:53:48;100717.00;;;27.30
71649;BMP180;59492;45.638;11.714;2022-09-09T02:03:52;100710.40;;;27.20
71649;BMP180;59492;45.638;11.714;2022-09-09T02:06:31;100713.40;;;27.20
71649;BMP180;59492;45.638;11.714;2022-09-09T02:09:02;100712.80;;;27.14
71649;BMP180;59492;45.638;11.714;2022-09-09T02:11:30;100710.40;;;27.18
71649;BMP180;59492;45.638;11.714;2022-09-09T02:14:16;100706.60;;;27.18
71649;BMP180;59492;45.638;11.714;2022-09-09T02:17:07;100704.00;;;27.10
71649;BMP180;59492;45.638;11.714;2022-09-09T02:19:37;100702.60;;;27.08
71649;BMP180;59492;45.638;11.714;2022-09-09T02:22:04;100703.80;;;27.10
71649;BMP180;59492;45.638;11.714;2022-09-09T02:24:33;100702.40;;;27.10
71649;BMP180;59492;45.638;11.714;2022-09-09T02:27:02;100692.00;;;27.10
71649;BMP180;59492;45.638;11.714;2022-09-09T02:29:33;100689.20;;;27.08
71649;BMP180;59492;45.638;11.714;2022-09-09T02:32:07;100686.80;;;27.04
71649;BMP180;59492;45.638;11.714;2022-09-09T02:34:38;100692.60;;;27.02
71649;BMP180;59492;45.638;11.714;2022-09-09T02:37:06;100697.00;;;27.00
71649;BMP180;59492;45.638;11.714;2022-09-09T02:39:33;100697.40;;;27.00
71649;BMP180;59492;45.638;11.714;2022-09-09T02:41:59;100694.40;;;27.00
71649;BMP180;59492;45.638;11.714;2022-09-09T02:44:25;100693.40;;;27.00
71649;BMP180;59492;45.638;11.714;2022-09-09T02:52:28;100690.80;;;26.90
71649;BMP180;59492;45.638;11.714;2022-09-09T02:55:02;100686.80;;;26.90
71649;BMP180;59492;45.638;11.714;2022-09-09T02:57:31;100685.00;;;26.90
71649;BMP180;59492;45.638;11.714;2022-09-09T03:00:00;100679.40;;;26.90
71649;BMP180;59492;45.638;11.714;2022-09-09T03:02:26;100682.20;;;26.90
71649;BMP180;59492;45.638;11.714;2022-09-09T03:04:52;100681.00;;;26.90
71649;BMP180;59492;45.638;11.714;2022-09-09T03:07:19;100683.00;;;26.90
71649;BMP180;59492;45.638;11.714;2022-09-09T03:09:44;100682.20;;;26.90
71649;BMP180;59492;45.638;11.714;2022-09-09T03:12:11;100678.60;;;26.90
71649;BMP180;59492;45.638;11.714;2022-09-09T03:14:37;100679.60;;;26.88
71649;BMP180;59492;45.638;11.714;2022-09-09T03:17:04;100675.20;;;26.90
71649;BMP180;59492;45.638;11.714;2022-09-09T03:19:30;100680.00;;;26.86
71649;BMP180;59492;45.638;11.714;2022-09-09T03:21:57;100682.40;;;26.86
71649;BMP180;59492;45.638;11.714;2022-09-09T03:24:24;100679.60;;;26.80
71649;BMP180;59492;45.638;11.714;2022-09-09T03:26:50;100676.80;;;26.80
71649;BMP180;59492;45.638;11.714;2022-09-09T03:29:16;100668.40;;;26.80
71649;BMP180;59492;45.638;11.714;2022-09-09T03:31:45;100665.00;;;26.80
71649;BMP180;59492;45.638;11.714;2022-09-09T03:34:11;100664.20;;;26.80
71649;BMP180;59492;45.638;11.714;2022-09-09T03:36:39;100662.80;;;26.80
71649;BMP180;59492;45.638;11.714;2022-09-09T03:39:06;100659.60;;;26.80
71649;BMP180;59492;45.638;11.714;2022-09-09T03:41:31;100659.40;;;26.80
71649;BMP180;59492;45.638;11.714;2022-09-09T03:43:57;100653.20;;;26.80
71649;BMP180;59492;45.638;11.714;2022-09-09T03:46:25;100646.80;;;26.78
71649;BMP180;59492;45.638;11.714;2022-09-09T03:48:51;100641.00;;;26.76
71649;BMP180;59492;45.638;11.714;2022-09-09T03:51:17;100646.40;;;26.76
71649;BMP180;59492;45.638;11.714;2022-09-09T03:53:43;100644.60;;;26.76
71649;BMP180;59492;45.638;11.714;2022-09-09T03:56:09;100645.80;;;26.72
71649;BMP180;59492;45.638;11.714;2022-09-09T03:58:36;100638.20;;;26.70
71649;BMP180;59492;45.638;11.714;2022-09-09T04:01:07;100636.00;;;26.70
71649;BMP180;59492;45.638;11.714;2022-09-09T04:03:38;100637.20;;;26.70
71649;BMP180;59492;45.638;11.714;2022-09-09T04:06:05;100635.20;;;26.70
71649;BMP180;59492;45.638;11.714;2022-09-09T04:08:32;100630.20;;;26.70
71649;BMP180;59492;45.638;11.714;2022-09-09T04:10:58;100632.60;;;26.70
71649;BMP180;59492;45.638;11.714;2022-09-09T04:13:25;100630.20;;;26.70
71649;BMP180;59492;45.638;11.714;2022-09-09T04:15:59;100629.40;;;26.68
71649;BMP180;59492;45.638;11.714;2022-09-09T04:18:30;100629.00;;;26.60
71649;BMP180;59492;45.638;11.714;2022-09-09T04:21:01;100633.00;;;26.62
71649;BMP180;59492;45.638;11.714;2022-09-09T04:23:32;100630.60;;;26.60
71649;BMP180;59492;45.638;11.714;2022-09-09T04:26:01;100629.20;;;26.60
71649;BMP180;59492;45.638;11.714;2022-09-09T04:28:31;100627.80;;;26.60
71649;BMP180;59492;45.638;11.714;2022-09-09T04:31:07;100623.20;;;26.60
71649;BMP180;59492;45.638;11.714;2022-09-09T04:33:37;100619.20;;;26.60
71649;BMP180;59492;45.638;11.714;2022-09-09T04:36:10;100620.40;;;26.60
71649;BMP180;59492;45.638;11.714;2022-09-09T04:38:45;100620.00;;;26.60
71649;BMP180;59492;45.638;11.714;2022-09-09T04:41:16;100618.80;;;26.60
71649;BMP180;59492;45.638;11.714;2022-09-09T04:43:41;100622.00;;;26.60
71649;BMP180;59492;45.638;11.714;2022-09-09T04:46:07;100627.00;;;26.60
71649;BMP180;59492;45.638;11.714;2022-09-09T04:48:33;100631.40;;;26.60
71649;BMP180;59492;45.638;11.714;2022-09-09T04:51:04;100631.60;;;26.60
71649;BMP180;59492;45.638;11.714;2022-09-09T04:53:30;100632.20;;;26.58
71649;BMP180;59492;45.638;11.714;2022-09-09T04:56:07;100630.00;;;26.60
71649;BMP180;59492;45.638;11.714;2022-09-09T04:58:33;100631.20;;;26.54
71649;BMP180;59492;45.638;11.714;2022-09-09T05:01:18;100629.20;;;26.56
71649;BMP180;59492;45.638;11.714;2022-09-09T05:03:45;100632.00;;;26.52
71649;BMP180;59492;45.638;11.714;2022-09-09T05:06:13;100633.60;;;26.58
71649;BMP180;59492;45.638;11.714;2022-09-09T05:08:41;100628.80;;;26.56
71649;BMP180;59492;45.638;11.714;2022-09-09T05:11:15;100633.00;;;26.56
71649;BMP180;59492;45.638;11.714;2022-09-09T05:13:43;100632.00;;;26.52
71649;BMP180;59492;45.638;11.714;2022-09-09T05:16:14;100638.00;;;26.52
71649;BMP180;59492;45.638;11.714;2022-09-09T05:18:42;100638.80;;;26.52
71649;BMP180;59492;45.638;11.714;2022-09-09T05:21:09;100641.60;;;26.50
71649;BMP180;59492;45.638;11.714;2022-09-09T05:23:36;100644.20;;;26.52
71649;BMP180;59492;45.638;11.714;2022-09-09T05:26:09;100646.80;;;26.50
71649;BMP180;59492;45.638;11.714;2022-09-09T05:28:46;100650.40;;;26.50
71649;BMP180;59492;45.638;11.714;2022-09-09T05:31:14;100655.20;;;26.50
71649;BMP180;59492;45.638;11.714;2022-09-09T05:33:43;100653.00;;;26.50
71649;BMP180;59492;45.638;11.714;2022-09-09T05:36:14;100653.60;;;26.50
71649;BMP180;59492;45.638;11.714;2022-09-09T05:38:41;100659.00;;;26.50
71649;BMP180;59492;45.638;11.714;2022-09-09T05:41:09;100661.20;;;26.50
71649;BMP180;59492;45.638;11.714;2022-09-09T05:43:37;100660.60;;;26.52
71649;BMP180;59492;45.638;11.714;2022-09-09T05:46:06;100659.20;;;26.52
71649;BMP180;59492;45.638;11.714;2022-09-09T05:48:42;100662.60;;;26.52
71649;BMP180;59492;45.638;11.714;2022-09-09T05:51:12;100662.20;;;26.50
71649;BMP180;59492;45.638;11.714;2022-09-09T05:53:38;100661.60;;;26.52
71649;BMP180;59492;45.638;11.714;2022-09-09T05:56:06;100670.80;;;26.54
71649;BMP180;59492;45.638;11.714;2022-09-09T05:58:34;100673.80;;;26.54
71649;BMP180;59492;45.638;11.714;2022-09-09T06:01:01;100678.00;;;26.56
71649;BMP180;59492;45.638;11.714;2022-09-09T06:03:27;100671.60;;;26.54
71649;BMP180;59492;45.638;11.714;2022-09-09T06:06:01;100673.00;;;26.56
71649;BMP180;59492;45.638;11.714;2022-09-09T06:08:27;100674.60;;;26.54
71649;BMP180;59492;45.638;11.714;2022-09-09T06:10:53;100676.40;;;26.60
71649;BMP180;59492;45.638;11.714;2022-09-09T06:13:19;100672.80;;;26.56
71649;BMP180;59492;45.638;11.714;2022-09-09T06:15:51;100667.80;;;26.60
71649;BMP180;59492;45.638;11.714;2022-09-09T06:18:18;100659.80;;;26.58
71649;BMP180;59492;45.638;11.714;2022-09-09T06:20:54;100656.60;;;26.40
71649;BMP180;59492;45.638;11.714;2022-09-09T06:23:19;100656.20;;;26.50
71649;BMP180;59492;45.638;11.714;2022-09-09T06:25:45;100657.20;;;26.56
71649;BMP180;59492;45.638;11.714;2022-09-09T06:28:11;100661.00;;;26.60
71649;BMP180;59492;45.638;11.714;2022-09-09T06:30:37;100662.80;;;26.60
71649;BMP180;59492;45.638;11.714;2022-09-09T06:33:03;100657.40;;;26.60
71649;BMP180;59492;45.638;11.714;2022-09-09T06:35:29;100653.00;;;26.64
71649;BMP180;59492;45.638;11.714;2022-09-09T06:37:55;100656.40;;;26.70
71649;BMP180;59492;45.638;11.714;2022-09-09T06:40:21;100658.60;;;26.80
71649;BMP180;59492;45.638;11.714;2022-09-09T06:42:46;100655.80;;;26.80
71649;BMP180;59492;45.638;11.714;2022-09-09T06:45:12;100657.20;;;26.90
71649;BMP180;59492;45.638;11.714;2022-09-09T06:47:38;100653.60;;;26.90
71649;BMP180;59492;45.638;11.714;2022-09-09T06:50:05;100650.40;;;26.90
71649;BMP180;59492;45.638;11.714;2022-09-09T06:52:32;100652.00;;;26.90
71649;BMP180;59492;45.638;11.714;2022-09-09T06:54:59;100653.00;;;26.90
71649;BMP180;59492;45.638;11.714;2022-09-09T06:57:27;100652.80;;;26.90
71649;BMP180;59492;45.638;11.714;2022-09-09T06:59:53;100648.80;;;26.92
71649;BMP180;59492;45.638;11.714;2022-09-09T07:02:18;100653.40;;;27.00
71649;BMP180;59492;45.638;11.714;2022-09-09T07:04:44;100653.20;;;27.00
71649;BMP180;59492;45.638;11.714;2022-09-09T07:07:09;100647.80;;;27.00
71649;BMP180;59492;45.638;11.714;2022-09-09T07:09:37;100652.80;;;27.00
71649;BMP180;59492;45.638;11.714;2022-09-09T07:12:03;100649.60;;;27.00
71649;BMP180;59492;45.638;11.714;2022-09-09T07:14:31;100650.00;;;27.02
71649;BMP180;59492;45.638;11.714;2022-09-09T07:16:56;100654.20;;;27.04
71649;BMP180;59492;45.638;11.714;2022-09-09T07:19:22;100656.00;;;27.04
71649;BMP180;59492;45.638;11.714;2022-09-09T07:21:48;100656.60;;;27.06
71649;BMP180;59492;45.638;11.714;2022-09-09T07:24:14;100656.60;;;27.02
71649;BMP180;59492;45.638;11.714;2022-09-09T07:26:40;100658.20;;;27.04
71649;BMP180;59492;45.638;11.714;2022-09-09T07:29:08;100656.80;;;27.02
71649;BMP180;59492;45.638;11.714;2022-09-09T07:31:36;100653.80;;;27.00
71649;BMP180;59492;45.638;11.714;2022-09-09T07:34:03;100654.60;;;27.02
71649;BMP180;59492;45.638;11.714;2022-09-09T07:36:37;100655.00;;;27.04
71649;BMP180;59492;45.638;11.714;2022-09-09T07:39:06;100660.60;;;27.08
71649;BMP180;59492;45.638;11.714;2022-09-09T07:41:39;100658.00;;;27.10
71649;BMP180;59492;45.638;11.714;2022-09-09T07:44:10;100655.20;;;27.10
71649;BMP180;59492;45.638;11.714;2022-09-09T07:46:37;100656.00;;;27.20
71649;BMP180;59492;45.638;11.714;2022-09-09T07:49:05;100656.40;;;27.20
71649;BMP180;59492;45.638;11.714;2022-09-09T07:51:34;100652.20;;;27.30
71649;BMP180;59492;45.638;11.714;2022-09-09T07:54:03;100655.20;;;27.30
71649;BMP180;59492;45.638;11.714;2022-09-09T07:56:30;100653.40;;;27.30
71649;BMP180;59492;45.638;11.714;2022-09-09T07:58:58;100654.60;;;27.30
71649;BMP180;59492;45.638;11.714;2022-09-09T08:01:42;100651.00;;;27.30
71649;BMP180;59492;45.638;11.714;2022-09-09T08:04:14;100655.00;;;27.26
71649;BMP180;59492;45.638;11.714;2022-09-09T08:06:45;100660.00;;;27.24
71649;BMP180;59492;45.638;11.714;2022-09-09T08:09:12;100659.80;;;27.22
71649;BMP180;59492;45.638;11.714;2022-09-09T08:11:39;100665.80;;;27.20
71649;BMP180;59492;45.638;11.714;2022-09-09T08:14:06;100660.00;;;27.20
71649;BMP180;59492;45.638;11.714;2022-09-09T08:16:35;100666.00;;;27.20
71649;BMP180;59492;45.638;11.714;2022-09-09T08:19:02;100663.80;;;27.20
71649;BMP180;59492;45.638;11.714;2022-09-09T08:21:29;100662.20;;;27.18
71649;BMP180;59492;45.638;11.714;2022-09-09T08:23:59;100662.40;;;27.12
71649;BMP180;59492;45.638;11.714;2022-09-09T08:26:35;100663.20;;;27.10
71649;BMP180;59492;45.638;11.714;2022-09-09T08:29:04;100667.00;;;27.10
71649;BMP180;59492;45.638;11.714;2022-09-09T08:31:36;100664.20;;;27.10
71649;BMP180;59492;45.638;11.714;2022-09-09T08:34:06;100665.00;;;27.20
71649;BMP180;59492;45.638;11.714;2022-09-09T08:36:44;100671.00;;;27.20
71649;BMP180;59492;45.638;11.714;2022-09-09T08:39:12;100670.80;;;27.30
71649;BMP180;59492;45.638;11.714;2022-09-09T08:50:26;100671.60;;;27.50
71649;BMP180;59492;45.638;11.714;2022-09-09T08:55:35;100685.00;;;27.50
71649;BMP180;59492;45.638;11.714;2022-09-09T08:58:10;100679.60;;;27.58
71649;BMP180;59492;45.638;11.714;2022-09-09T09:09:15;100671.00;;;27.70
71649;BMP180;59492;45.638;11.714;2022-09-09T09:12:08;100666.80;;;27.80
71649;BMP180;59492;45.638;11.714;2022-09-09T09:14:37;100663.60;;;27.80
71649;BMP180;59492;45.638;11.714;2022-09-09T09:17:06;100660.60;;;27.90
71649;BMP180;59492;45.638;11.714;2022-09-09T09:19:34;100658.20;;;28.00
71649;BMP180;59492;45.638;11.714;2022-09-09T09:22:23;100656.00;;;28.06
71649;BMP180;59492;45.638;11.714;2022-09-09T09:24:58;100655.20;;;28.10
71649;BMP180;59492;45.638;11.714;2022-09-09T09:27:45;100657.20;;;28.20
71649;BMP180;59492;45.638;11.714;2022-09-09T09:30:21;100656.00;;;28.20
71649;BMP180;59492;45.638;11.714;2022-09-09T09:33:08;100651.60;;;28.30
71649;BMP180;59492;45.638;11.714;2022-09-09T09:35:40;100651.00;;;28.30
71649;BMP180;59492;45.638;11.714;2022-09-09T09:40:55;100652.20;;;28.40
71649;BMP180;59492;45.638;11.714;2022-09-09T09:43:31;100649.60;;;28.40
71649;BMP180;59492;45.638;11.714;2022-09-09T09:45:58;100649.80;;;28.50
71649;BMP180;59492;45.638;11.714;2022-09-09T09:48:26;100652.00;;;28.50
71649;BMP180;59492;45.638;11.714;2022-09-09T09:50:53;100651.80;;;28.50
71649;BMP180;59492;45.638;11.714;2022-09-09T09:53:26;100654.20;;;28.52
71649;BMP180;59492;45.638;11.714;2022-09-09T09:56:01;100650.60;;;28.60
71649;BMP180;59492;45.638;11.714;2022-09-09T09:58:31;100649.00;;;28.60
71649;BMP180;59492;45.638;11.714;2022-09-09T10:00:59;100647.20;;;28.60
71649;BMP180;59492;45.638;11.714;2022-09-09T10:03:29;100644.40;;;28.70
71649;BMP180;59492;45.638;11.714;2022-09-09T10:05:55;100640.00;;;28.70
71649;BMP180;59492;45.638;11.714;2022-09-09T10:08:23;100635.80;;;28.80
71649;BMP180;59492;45.638;11.714;2022-09-09T10:10:57;100632.60;;;28.80
71649;BMP180;59492;45.638;11.714;2022-09-09T10:18:59;100627.60;;;28.80
71649;BMP180;59492;45.638;11.714;2022-09-09T10:24:26;100621.80;;;28.88
71649;BMP180;59492;45.638;11.714;2022-09-09T10:27:02;100620.80;;;28.90
71649;BMP180;59492;45.638;11.714;2022-09-09T10:32:30;100615.80;;;28.90
71649;BMP180;59492;45.638;11.714;2022-09-09T10:35:22;100615.40;;;28.90
71649;BMP180;59492;45.638;11.714;2022-09-09T10:38:16;100614.80;;;28.90
71649;BMP180;59492;45.638;11.714;2022-09-09T10:43:46;100621.20;;;28.90
71649;BMP180;59492;45.638;11.714;2022-09-09T10:46:40;100624.20;;;28.80
71649;BMP180;59492;45.638;11.714;2022-09-09T10:52:14;100609.20;;;28.80
71649;BMP180;59492;45.638;11.714;2022-09-09T10:57:41;100605.60;;;28.70
71649;BMP180;59492;45.638;11.714;2022-09-09T11:00:21;100609.00;;;28.70
71649;BMP180;59492;45.638;11.714;2022-09-09T11:02:56;100611.60;;;28.66
71649;BMP180;59492;45.638;11.714;2022-09-09T11:05:41;100622.40;;;28.64
71649;BMP180;59492;45.638;11.714;2022-09-09T11:08:21;100624.20;;;28.60
71649;BMP180;59492;45.638;11.714;2022-09-09T11:10:59;100631.00;;;28.68
71649;BMP180;59492;45.638;11.714;2022-09-09T11:16:50;100628.40;;;28.70
71649;BMP180;59492;45.638;11.714;2022-09-09T11:19:28;100632.00;;;28.70
71649;BMP180;59492;45.638;11.714;2022-09-09T11:21:58;100634.00;;;28.70
71649;BMP180;59492;45.638;11.714;2022-09-09T11:25:21;100624.20;;;28.70
71649;BMP180;59492;45.638;11.714;2022-09-09T11:28:07;100623.60;;;28.70
71649;BMP180;59492;45.638;11.714;2022-09-09T11:38:49;100621.80;;;28.60
71649;BMP180;59492;45.638;11.714;2022-09-09T11:41:16;100618.40;;;28.60
71649;BMP180;59492;45.638;11.714;2022-09-09T11:44:09;100617.60;;;28.60
71649;BMP180;59492;45.638;11.714;2022-09-09T11:46:36;100604.60;;;28.50
71649;BMP180;59492;45.638;11.714;2022-09-09T11:49:05;100607.60;;;28.40
71649;BMP180;59492;45.638;11.714;2022-09-09T11:51:33;100603.20;;;28.46
71649;BMP180;59492;45.638;11.714;2022-09-09T11:56:46;100589.80;;;28.40
71649;BMP180;59492;45.638;11.714;2022-09-09T11:59:29;100593.40;;;28.40
71649;BMP180;59492;45.638;11.714;2022-09-09T12:02:13;100606.00;;;28.30
71649;BMP180;59492;45.638;11.714;2022-09-09T12:04:47;100615.00;;;28.30
71649;BMP180;59492;45.638;11.714;2022-09-09T12:07:33;100626.80;;;28.26
71649;BMP180;59492;45.638;11.714;2022-09-09T12:10:19;100623.60;;;28.20
71649;BMP180;59492;45.638;11.714;2022-09-09T12:12:45;100619.40;;;28.16
71649;BMP180;59492;45.638;11.714;2022-09-09T12:17:46;100648.40;;;28.10
71649;BMP180;59492;45.638;11.714;2022-09-09T12:28:47;100721.40;;;27.88
71649;BMP180;59492;45.638;11.714;2022-09-09T12:32:11;100701.80;;;27.80
71649;BMP180;59492;45.638;11.714;2022-09-09T12:34:16;100711.80;;;27.78
71649;BMP180;59492;45.638;11.714;2022-09-09T12:36:48;100731.20;;;27.80
71649;BMP180;59492;45.638;11.714;2022-09-09T12:39:37;100752.00;;;27.80
71649;BMP180;59492;45.638;11.714;2022-09-09T12:42:03;100755.80;;;27.70
71649;BMP180;59492;45.638;11.714;2022-09-09T12:44:30;100726.40;;;27.70
71649;BMP180;59492;45.638;11.714;2022-09-09T12:46:59;100692.40;;;27.70
71649;BMP180;59492;45.638;11.714;2022-09-09T12:49:32;100661.20;;;27.70
71649;BMP180;59492;45.638;11.714;2022-09-09T12:52:20;100640.80;;;27.68
71649;BMP180;59492;45.638;11.714;2022-09-09T12:54:48;100649.60;;;27.60
71649;BMP180;59492;45.638;11.714;2022-09-09T12:57:16;100657.40;;;27.64
71649;BMP180;59492;45.638;11.714;2022-09-09T12:59:43;100660.40;;;27.66
71649;BMP180;59492;45.638;11.714;2022-09-09T13:02:21;100657.80;;;27.60
71649;BMP180;59492;45.638;11.714;2022-09-09T13:04:48;100652.80;;;27.60
71649;BMP180;59492;45.638;11.714;2022-09-09T13:07:29;100651.40;;;27.60
71649;BMP180;59492;45.638;11.714;2022-09-09T13:09:55;100646.80;;;27.60
71649;BMP180;59492;45.638;11.714;2022-09-09T13:12:22;100644.60;;;27.60
71649;BMP180;59492;45.638;11.714;2022-09-09T13:14:52;100639.60;;;27.60
71649;BMP180;59492;45.638;11.714;2022-09-09T13:17:24;100635.40;;;27.60
71649;BMP180;59492;45.638;11.714;2022-09-09T13:19:51;100635.80;;;27.60
71649;BMP180;59492;45.638;11.714;2022-09-09T13:22:32;100632.60;;;27.60
71649;BMP180;59492;45.638;11.714;2022-09-09T13:27:32;100626.80;;;27.60
71649;BMP180;59492;45.638;11.714;2022-09-09T13:30:00;100622.20;;;27.60
71649;BMP180;59492;45.638;11.714;2022-09-09T13:32:27;100618.60;;;27.60
71649;BMP180;59492;45.638;11.714;2022-09-09T13:34:58;100614.00;;;27.60
71649;BMP180;59492;45.638;11.714;2022-09-09T13:37:38;100606.40;;;27.60
71649;BMP180;59492;45.638;11.714;2022-09-09T13:40:19;100604.40;;;27.60
71649;BMP180;59492;45.638;11.714;2022-09-09T13:42:56;100611.60;;;27.62
71649;BMP180;59492;45.638;11.714;2022-09-09T13:45:25;100609.20;;;27.66
71649;BMP180;59492;45.638;11.714;2022-09-09T13:47:55;100613.00;;;27.68
71649;BMP180;59492;45.638;11.714;2022-09-09T13:52:57;100612.20;;;27.70
71649;BMP180;59492;45.638;11.714;2022-09-09T13:55:26;100609.60;;;27.70
71649;BMP180;59492;45.638;11.714;2022-09-09T13:57:54;100604.60;;;27.70
71649;BMP180;59492;45.638;11.714;2022-09-09T14:00:21;100606.60;;;27.70
71649;BMP180;59492;45.638;11.714;2022-09-09T14:02:50;100601.60;;;27.70
71649;BMP180;59492;45.638;11.714;2022-09-09T14:05:19;100605.60;;;27.70
71649;BMP180;59492;45.638;11.714;2022-09-09T14:07:45;100610.20;;;27.70
71649;BMP180;59492;45.638;11.714;2022-09-09T14:10:12;100605.80;;;27.70
71649;BMP180;59492;45.638;11.714;2022-09-09T14:12:37;100606.80;;;27.70
71649;BMP180;59492;45.638;11.714;2022-09-09T14:15:05;100605.40;;;27.70
71649;BMP180;59492;45.638;11.714;2022-09-09T14:17:31;100601.80;;;27.70
71649;BMP180;59492;45.638;11.714;2022-09-09T14:19:57;100603.20;;;27.74
71649;BMP180;59492;45.638;11.714;2022-09-09T14:22:23;100604.80;;;27.74
71649;BMP180;59492;45.638;11.714;2022-09-09T14:24:49;100608.80;;;27.74
71649;BMP180;59492;45.638;11.714;2022-09-09T14:27:16;100614.20;;;27.76
71649;BMP180;59492;45.638;11.714;2022-09-09T14:29:43;100609.40;;;27.74
71649;BMP180;59492;45.638;11.714;2022-09-09T14:32:10;100604.80;;;27.76
71649;BMP180;59492;45.638;11.714;2022-09-09T14:34:36;100605.80;;;27.74
71649;BMP180;59492;45.638;11.714;2022-09-09T14:37:01;100607.00;;;27.72
71649;BMP180;59492;45.638;11.714;2022-09-09T14:39:27;100605.60;;;27.70
71649;BMP180;59492;45.638;11.714;2022-09-09T14:41:52;100611.00;;;27.70
71649;BMP180;59492;45.638;11.714;2022-09-09T14:44:18;100610.40;;;27.70
71649;BMP180;59492;45.638;11.714;2022-09-09T14:46:44;100604.40;;;27.70
71649;BMP180;59492;45.638;11.714;2022-09-09T14:49:09;100603.60;;;27.70
71649;BMP180;59492;45.638;11.714;2022-09-09T14:51:38;100606.80;;;27.70
71649;BMP180;59492;45.638;11.714;2022-09-09T14:54:04;100608.00;;;27.70
71649;BMP180;59492;45.638;11.714;2022-09-09T14:56:32;100606.20;;;27.70
71649;BMP180;59492;45.638;11.714;2022-09-09T14:59:01;100604.20;;;27.70
71649;BMP180;59492;45.638;11.714;2022-09-09T15:01:28;100599.60;;;27.68
71649;BMP180;59492;45.638;11.714;2022-09-09T15:04:00;100599.20;;;27.64
71649;BMP180;59492;45.638;11.714;2022-09-09T15:06:29;100599.00;;;27.60
71649;BMP180;59492;45.638;11.714;2022-09-09T15:08:55;100600.80;;;27.60
71649;BMP180;59492;45.638;11.714;2022-09-09T15:11:30;100600.40;;;27.60
71649;BMP180;59492;45.638;11.714;2022-09-09T15:13:57;100602.60;;;27.60
71649;BMP180;59492;45.638;11.714;2022-09-09T15:16:26;100600.00;;;27.60
71649;BMP180;59492;45.638;11.714;2022-09-09T15:18:54;100600.40;;;27.60
71649;BMP180;59492;45.638;11.714;2022-09-09T15:21:21;100598.40;;;27.60
71649;BMP180;59492;45.638;11.714;2022-09-09T15:23:48;100597.80;;;27.60
71649;BMP180;59492;45.638;11.714;2022-09-09T15:26:14;100595.80;;;27.60
71649;BMP180;59492;45.638;11.714;2022-09-09T15:28:42;100591.60;;;27.60
71649;BMP180;59492;45.638;11.714;2022-09-09T15:36:22;100592.40;;;27.60
71649;BMP180;59492;45.638;11.714;2022-09-09T15:38:48;100590.80;;;27.56
71649;BMP180;59492;45.638;11.714;2022-09-09T15:41:15;100591.80;;;27.58
71649;BMP180;59492;45.638;11.714;2022-09-09T15:43:46;100588.80;;;27.58
71649;BMP180;59492;45.638;11.714;2022-09-09T15:46:43;100585.80;;;27.52
71649;BMP180;59492;45.638;11.714;2022-09-09T15:49:18;100585.20;;;27.50
71649;BMP180;59492;45.638;11.714;2022-09-09T15:51:53;100581.80;;;27.50
71649;BMP180;59492;45.638;11.714;2022-09-09T15:54:22;100575.20;;;27.50
71649;BMP180;59492;45.638;11.714;2022-09-09T15:56:59;100577.40;;;27.50
71649;BMP180;59492;45.638;11.714;2022-09-09T15:59:26;100576.60;;;27.50
71649;BMP180;59492;45.638;11.714;2022-09-09T16:01:58;100575.60;;;27.50
71649;BMP180;59492;45.638;11.714;2022-09-09T16:04:26;100576.00;;;27.50
71649;BMP180;59492;45.638;11.714;2022-09-09T16:06:57;100577.40;;;27.50
71649;BMP180;59492;45.638;11.714;2022-09-09T16:09:27;100573.80;;;27.50
71649;BMP180;59492;45.638;11.714;2022-09-09T16:11:56;100577.60;;;27.50